sensor_id;sensor_type;location;lat;lon;timestamp;P1;durP1;ratioP1;P2;durP2;ratioP2
58468;SDS011;44257;44.804;10.220;2023-03-21T00:00:25;25.20;;;12.88;;
58468;SDS011;44257;44.804;10.220;2023-03-21T00:02:51;25.75;;;13.05;;
58468;SDS011;44257;44.804;10.220;2023-03-21T00:05:17;23.98;;;13.63;;
58468;SDS011;44257;44.804;10.220;2023-03-21T00:07:45;19.20;;;12.05;;
58468;SDS011;44257;44.804;10.220;2023-03-21T00:10:12;24.05;;;12.27;;
58468;SDS011;44257;44.804;10.220;2023-03-21T00:12:39;24.48;;;13.20;;
58468;SDS011;44257;44.804;10.220;2023-03-21T00:15:09;22.65;;;11.95;;
58468;SDS011;44257;44.804;10.220;2023-03-21T00:17:38;24.30;;;12.63;;
58468;SDS011;44257;44.804;10.220;2023-03-21T00:20:04;24.65;;;13.52;;
58468;SDS011;44257;44.804;10.220;2023-03-21T00:22:39;22.48;;;11.68;;
58468;SDS011;44257;44.804;10.220;2023-03-21T00:25:06;29.13;;;13.35;;
58468;SDS011;44257;44.804;10.220;2023-03-21T00:27:35;20.42;;;11.63;;
58468;SDS011;44257;44.804;10.220;2023-03-21T00:30:01;20.70;;;12.18;;
58468;SDS011;44257;44.804;10.220;2023-03-21T00:32:28;22.80;;;12.32;;
58468;SDS011;44257;44.804;10.220;2023-03-21T00:34:54;23.98;;;12.45;;
58468;SDS011;44257;44.804;10.220;2023-03-21T00:37:20;25.70;;;13.65;;
58468;SDS011;44257;44.804;10.220;2023-03-21T00:39:46;30.92;;;15.38;;
58468;SDS011;44257;44.804;10.220;2023-03-21T00:42:17;16.05;;;9.60;;
58468;SDS011;44257;44.804;10.220;2023-03-21T00:44:43;23.83;;;12.52;;
58468;SDS011;44257;44.804;10.220;2023-03-21T00:47:12;20.10;;;12.05;;
58468;SDS011;44257;44.804;10.220;2023-03-21T00:49:38;22.20;;;12.85;;
58468;SDS011;44257;44.804;10.220;2023-03-21T00:52:05;24.65;;;12.63;;
58468;SDS011;44257;44.804;10.220;2023-03-21T00:54:33;22.35;;;11.55;;
58468;SDS011;44257;44.804;10.220;2023-03-21T00:57:01;25.27;;;13.48;;
58468;SDS011;44257;44.804;10.220;2023-03-21T00:59:28;25.98;;;13.95;;
58468;SDS011;44257;44.804;10.220;2023-03-21T01:01:55;26.50;;;12.35;;
58468;SDS011;44257;44.804;10.220;2023-03-21T01:04:25;24.60;;;12.27;;
58468;SDS011;44257;44.804;10.220;2023-03-21T01:06:52;23.58;;;11.93;;
58468;SDS011;44257;44.804;10.220;2023-03-21T01:09:20;20.38;;;12.00;;
58468;SDS011;44257;44.804;10.220;2023-03-21T01:11:47;28.83;;;13.20;;
58468;SDS011;44257;44.804;10.220;2023-03-21T01:14:14;21.50;;;12.70;;
58468;SDS011;44257;44.804;10.220;2023-03-21T01:16:41;21.10;;;11.52;;
58468;SDS011;44257;44.804;10.220;2023-03-21T01:19:10;21.83;;;12.48;;
58468;SDS011;44257;44.804;10.220;2023-03-21T01:21:40;27.77;;;13.30;;
58468;SDS011;44257;44.804;10.220;2023-03-21T01:24:07;20.92;;;12.38;;
58468;SDS011;44257;44.804;10.220;2023-03-21T01:26:35;26.50;;;11.25;;
58468;SDS011;44257;44.804;10.220;2023-03-21T01:29:02;23.73;;;13.32;;
58468;SDS011;44257;44.804;10.220;2023-03-21T01:31:31;24.77;;;11.95;;
58468;SDS011;44257;44.804;10.220;2023-03-21T01:33:57;25.27;;;12.40;;
58468;SDS011;44257;44.804;10.220;2023-03-21T01:36:23;22.98;;;12.05;;
58468;SDS011;44257;44.804;10.220;2023-03-21T01:38:54;21.67;;;12.23;;
58468;SDS011;44257;44.804;10.220;2023-03-21T01:41:27;23.35;;;12.13;;
58468;SDS011;44257;44.804;10.220;2023-03-21T01:43:55;24.05;;;12.40;;
58468;SDS011;44257;44.804;10.220;2023-03-21T01:46:48;26.45;;;15.07;;
58468;SDS011;44257;44.804;10.220;2023-03-21T01:49:52;22.88;;;12.60;;
58468;SDS011;44257;44.804;10.220;2023-03-21T01:52:33;26.00;;;13.02;;
58468;SDS011;44257;44.804;10.220;2023-03-21T01:55:12;23.35;;;13.52;;
58468;SDS011;44257;44.804;10.220;2023-03-21T01:57:53;22.25;;;11.88;;
58468;SDS011;44257;44.804;10.220;2023-03-21T02:00:22;20.88;;;11.50;;
58468;SDS011;44257;44.804;10.220;2023-03-21T02:03:01;21.98;;;12.55;;
58468;SDS011;44257;44.804;10.220;2023-03-21T02:05:42;21.80;;;11.55;;
58468;SDS011;44257;44.804;10.220;2023-03-21T02:08:13;24.60;;;11.77;;
58468;SDS011;44257;44.804;10.220;2023-03-21T02:10:39;27.40;;;11.80;;
58468;SDS011;44257;44.804;10.220;2023-03-21T02:13:10;24.05;;;12.05;;
58468;SDS011;44257;44.804;10.220;2023-03-21T02:15:40;21.63;;;10.88;;
58468;SDS011;44257;44.804;10.220;2023-03-21T02:32:49;23.10;;;13.50;;
58468;SDS011;44257;44.804;10.220;2023-03-21T02:35:37;23.75;;;12.40;;
58468;SDS011;44257;44.804;10.220;2023-03-21T02:40:58;22.15;;;11.30;;
58468;SDS011;44257;44.804;10.220;2023-03-21T02:43:32;20.52;;;11.50;;
58468;SDS011;44257;44.804;10.220;2023-03-21T02:49:46;21.42;;;11.73;;
58468;SDS011;44257;44.804;10.220;2023-03-21T02:52:07;22.30;;;12.45;;
58468;SDS011;44257;44.804;10.220;2023-03-21T02:54:37;20.23;;;11.80;;
58468;SDS011;44257;44.804;10.220;2023-03-21T02:57:06;21.20;;;11.73;;
58468;SDS011;44257;44.804;10.220;2023-03-21T02:59:33;22.27;;;12.82;;
58468;SDS011;44257;44.804;10.220;2023-03-21T03:02:01;23.10;;;11.32;;
58468;SDS011;44257;44.804;10.220;2023-03-21T03:04:29;23.73;;;12.43;;
58468;SDS011;44257;44.804;10.220;2023-03-21T03:28:39;24.20;;;12.80;;
58468;SDS011;44257;44.804;10.220;2023-03-21T03:31:12;20.10;;;10.55;;
58468;SDS011;44257;44.804;10.220;2023-03-21T03:33:51;24.65;;;12.75;;
58468;SDS011;44257;44.804;10.220;2023-03-21T03:36:26;24.25;;;11.80;;
58468;SDS011;44257;44.804;10.220;2023-03-21T03:39:04;22.85;;;11.75;;
58468;SDS011;44257;44.804;10.220;2023-03-21T03:41:36;26.02;;;12.52;;
58468;SDS011;44257;44.804;10.220;2023-03-21T03:44:10;21.52;;;11.43;;
58468;SDS011;44257;44.804;10.220;2023-03-21T03:49:16;19.27;;;11.30;;
58468;SDS011;44257;44.804;10.220;2023-03-21T03:54:51;20.05;;;11.27;;
58468;SDS011;44257;44.804;10.220;2023-03-21T03:57:19;24.20;;;12.35;;
58468;SDS011;44257;44.804;10.220;2023-03-21T03:59:46;23.88;;;10.98;;
58468;SDS011;44257;44.804;10.220;2023-03-21T04:02:22;24.67;;;10.70;;
58468;SDS011;44257;44.804;10.220;2023-03-21T04:04:49;25.33;;;10.93;;
58468;SDS011;44257;44.804;10.220;2023-03-21T04:07:20;19.92;;;11.65;;
58468;SDS011;44257;44.804;10.220;2023-03-21T04:09:48;25.77;;;11.10;;
58468;SDS011;44257;44.804;10.220;2023-03-21T04:12:17;19.88;;;10.77;;
58468;SDS011;44257;44.804;10.220;2023-03-21T04:14:59;23.27;;;11.35;;
58468;SDS011;44257;44.804;10.220;2023-03-21T04:17:25;20.10;;;11.63;;
58468;SDS011;44257;44.804;10.220;2023-03-21T04:19:51;20.70;;;11.10;;
58468;SDS011;44257;44.804;10.220;2023-03-21T04:22:21;22.10;;;10.82;;
58468;SDS011;44257;44.804;10.220;2023-03-21T04:24:47;23.83;;;12.70;;
58468;SDS011;44257;44.804;10.220;2023-03-21T04:27:13;23.83;;;11.60;;
58468;SDS011;44257;44.804;10.220;2023-03-21T04:29:41;19.00;;;10.82;;
58468;SDS011;44257;44.804;10.220;2023-03-21T04:32:09;25.25;;;12.05;;
58468;SDS011;44257;44.804;10.220;2023-03-21T04:34:43;20.20;;;10.07;;
58468;SDS011;44257;44.804;10.220;2023-03-21T04:37:15;22.60;;;11.95;;
58468;SDS011;44257;44.804;10.220;2023-03-21T04:39:43;23.48;;;11.23;;
58468;SDS011;44257;44.804;10.220;2023-03-21T04:42:11;21.58;;;11.40;;
58468;SDS011;44257;44.804;10.220;2023-03-21T04:44:39;19.33;;;10.43;;
58468;SDS011;44257;44.804;10.220;2023-03-21T04:47:05;20.60;;;10.52;;
58468;SDS011;44257;44.804;10.220;2023-03-21T04:49:31;19.65;;;11.50;;
58468;SDS011;44257;44.804;10.220;2023-03-21T04:51:58;24.52;;;11.40;;
58468;SDS011;44257;44.804;10.220;2023-03-21T04:54:23;19.60;;;11.25;;
58468;SDS011;44257;44.804;10.220;2023-03-21T04:56:49;23.38;;;11.60;;
58468;SDS011;44257;44.804;10.220;2023-03-21T04:59:16;23.38;;;12.20;;
58468;SDS011;44257;44.804;10.220;2023-03-21T05:01:43;20.42;;;11.45;;
58468;SDS011;44257;44.804;10.220;2023-03-21T05:04:10;19.60;;;12.00;;
58468;SDS011;44257;44.804;10.220;2023-03-21T05:06:38;26.23;;;12.02;;
58468;SDS011;44257;44.804;10.220;2023-03-21T05:09:06;21.48;;;10.82;;
58468;SDS011;44257;44.804;10.220;2023-03-21T05:11:34;20.25;;;11.32;;
58468;SDS011;44257;44.804;10.220;2023-03-21T05:14:06;24.70;;;12.30;;
58468;SDS011;44257;44.804;10.220;2023-03-21T05:16:33;20.92;;;11.05;;
58468;SDS011;44257;44.804;10.220;2023-03-21T05:19:00;24.90;;;11.68;;
58468;SDS011;44257;44.804;10.220;2023-03-21T05:21:36;20.33;;;10.90;;
58468;SDS011;44257;44.804;10.220;2023-03-21T05:24:10;22.55;;;11.82;;
58468;SDS011;44257;44.804;10.220;2023-03-21T05:26:40;21.23;;;11.07;;
58468;SDS011;44257;44.804;10.220;2023-03-21T05:29:13;19.88;;;10.35;;
58468;SDS011;44257;44.804;10.220;2023-03-21T05:31:40;20.50;;;10.30;;
58468;SDS011;44257;44.804;10.220;2023-03-21T05:34:09;22.08;;;11.88;;
58468;SDS011;44257;44.804;10.220;2023-03-21T05:36:36;25.52;;;11.85;;
58468;SDS011;44257;44.804;10.220;2023-03-21T05:39:05;23.20;;;11.02;;
58468;SDS011;44257;44.804;10.220;2023-03-21T05:41:34;17.25;;;10.48;;
58468;SDS011;44257;44.804;10.220;2023-03-21T05:44:02;18.95;;;10.50;;
58468;SDS011;44257;44.804;10.220;2023-03-21T05:46:28;22.90;;;10.90;;
58468;SDS011;44257;44.804;10.220;2023-03-21T05:48:55;22.35;;;11.10;;
58468;SDS011;44257;44.804;10.220;2023-03-21T05:51:22;21.45;;;10.35;;
58468;SDS011;44257;44.804;10.220;2023-03-21T05:53:48;20.10;;;10.48;;
58468;SDS011;44257;44.804;10.220;2023-03-21T05:56:14;20.80;;;11.00;;
58468;SDS011;44257;44.804;10.220;2023-03-21T05:58:54;21.83;;;10.27;;
58468;SDS011;44257;44.804;10.220;2023-03-21T06:01:21;19.92;;;10.88;;
58468;SDS011;44257;44.804;10.220;2023-03-21T06:04:05;21.95;;;10.90;;
58468;SDS011;44257;44.804;10.220;2023-03-21T06:06:32;20.35;;;10.40;;
58468;SDS011;44257;44.804;10.220;2023-03-21T06:08:59;18.10;;;10.07;;
58468;SDS011;44257;44.804;10.220;2023-03-21T06:11:27;21.13;;;10.90;;
58468;SDS011;44257;44.804;10.220;2023-03-21T06:14:15;19.33;;;11.00;;
58468;SDS011;44257;44.804;10.220;2023-03-21T06:16:43;18.27;;;10.23;;
58468;SDS011;44257;44.804;10.220;2023-03-21T06:19:09;24.20;;;9.35;;
58468;SDS011;44257;44.804;10.220;2023-03-21T06:21:54;17.58;;;10.00;;
58468;SDS011;44257;44.804;10.220;2023-03-21T06:24:20;20.33;;;10.40;;
58468;SDS011;44257;44.804;10.220;2023-03-21T06:26:46;16.80;;;8.80;;
58468;SDS011;44257;44.804;10.220;2023-03-21T06:29:12;15.57;;;8.98;;
58468;SDS011;44257;44.804;10.220;2023-03-21T06:31:44;16.83;;;9.27;;
58468;SDS011;44257;44.804;10.220;2023-03-21T06:34:10;14.23;;;8.55;;
58468;SDS011;44257;44.804;10.220;2023-03-21T06:36:36;16.20;;;8.55;;
58468;SDS011;44257;44.804;10.220;2023-03-21T06:39:03;21.38;;;9.43;;
58468;SDS011;44257;44.804;10.220;2023-03-21T06:41:30;20.60;;;9.60;;
58468;SDS011;44257;44.804;10.220;2023-03-21T06:44:00;17.23;;;8.68;;
58468;SDS011;44257;44.804;10.220;2023-03-21T06:46:29;15.45;;;9.63;;
58468;SDS011;44257;44.804;10.220;2023-03-21T06:48:55;14.40;;;8.32;;
58468;SDS011;44257;44.804;10.220;2023-03-21T06:51:21;13.38;;;8.63;;
58468;SDS011;44257;44.804;10.220;2023-03-21T06:54:07;16.45;;;9.52;;
58468;SDS011;44257;44.804;10.220;2023-03-21T06:56:38;15.05;;;8.50;;
58468;SDS011;44257;44.804;10.220;2023-03-21T06:59:09;15.43;;;9.63;;
58468;SDS011;44257;44.804;10.220;2023-03-21T07:01:52;17.48;;;9.00;;
58468;SDS011;44257;44.804;10.220;2023-03-21T07:04:19;18.55;;;9.68;;
58468;SDS011;44257;44.804;10.220;2023-03-21T07:06:45;13.48;;;8.85;;
58468;SDS011;44257;44.804;10.220;2023-03-21T07:09:11;20.63;;;9.98;;
58468;SDS011;44257;44.804;10.220;2023-03-21T07:11:37;19.08;;;10.00;;
58468;SDS011;44257;44.804;10.220;2023-03-21T07:14:04;21.35;;;10.23;;
58468;SDS011;44257;44.804;10.220;2023-03-21T07:16:31;16.50;;;9.93;;
58468;SDS011;44257;44.804;10.220;2023-03-21T07:18:57;15.13;;;9.00;;
58468;SDS011;44257;44.804;10.220;2023-03-21T07:21:22;18.40;;;9.68;;
58468;SDS011;44257;44.804;10.220;2023-03-21T07:23:48;43.75;;;10.98;;
58468;SDS011;44257;44.804;10.220;2023-03-21T07:26:14;17.45;;;9.55;;
58468;SDS011;44257;44.804;10.220;2023-03-21T07:28:42;14.85;;;9.57;;
58468;SDS011;44257;44.804;10.220;2023-03-21T07:31:12;32.80;;;10.57;;
58468;SDS011;44257;44.804;10.220;2023-03-21T07:33:40;24.90;;;8.82;;
58468;SDS011;44257;44.804;10.220;2023-03-21T07:36:14;17.08;;;9.15;;
58468;SDS011;44257;44.804;10.220;2023-03-21T07:38:41;49.08;;;11.50;;
58468;SDS011;44257;44.804;10.220;2023-03-21T07:41:08;16.50;;;10.05;;
58468;SDS011;44257;44.804;10.220;2023-03-21T07:43:34;18.30;;;9.68;;
58468;SDS011;44257;44.804;10.220;2023-03-21T07:46:00;18.92;;;9.93;;
58468;SDS011;44257;44.804;10.220;2023-03-21T07:48:26;23.70;;;10.48;;
58468;SDS011;44257;44.804;10.220;2023-03-21T07:50:52;18.25;;;9.38;;
58468;SDS011;44257;44.804;10.220;2023-03-21T07:53:18;18.63;;;10.00;;
58468;SDS011;44257;44.804;10.220;2023-03-21T07:55:48;29.33;;;11.57;;
58468;SDS011;44257;44.804;10.220;2023-03-21T07:58:14;70.47;;;15.38;;
58468;SDS011;44257;44.804;10.220;2023-03-21T08:00:40;23.85;;;11.35;;
58468;SDS011;44257;44.804;10.220;2023-03-21T08:03:06;31.83;;;12.18;;
58468;SDS011;44257;44.804;10.220;2023-03-21T08:05:33;24.90;;;10.25;;
58468;SDS011;44257;44.804;10.220;2023-03-21T08:08:01;19.15;;;10.77;;
58468;SDS011;44257;44.804;10.220;2023-03-21T08:10:27;27.58;;;11.48;;
58468;SDS011;44257;44.804;10.220;2023-03-21T08:12:53;23.83;;;12.43;;
58468;SDS011;44257;44.804;10.220;2023-03-21T08:15:19;22.00;;;12.65;;
58468;SDS011;44257;44.804;10.220;2023-03-21T08:17:45;22.98;;;13.32;;
58468;SDS011;44257;44.804;10.220;2023-03-21T08:20:12;20.90;;;12.50;;
58468;SDS011;44257;44.804;10.220;2023-03-21T08:22:41;22.52;;;12.13;;
58468;SDS011;44257;44.804;10.220;2023-03-21T08:25:08;21.13;;;12.80;;
58468;SDS011;44257;44.804;10.220;2023-03-21T08:27:42;25.85;;;13.70;;
58468;SDS011;44257;44.804;10.220;2023-03-21T08:30:10;25.40;;;13.55;;
58468;SDS011;44257;44.804;10.220;2023-03-21T08:32:38;36.35;;;14.85;;
58468;SDS011;44257;44.804;10.220;2023-03-21T08:35:06;27.52;;;13.95;;
58468;SDS011;44257;44.804;10.220;2023-03-21T08:37:35;23.83;;;14.57;;
58468;SDS011;44257;44.804;10.220;2023-03-21T08:40:04;23.27;;;13.85;;
58468;SDS011;44257;44.804;10.220;2023-03-21T08:42:35;22.42;;;13.57;;
58468;SDS011;44257;44.804;10.220;2023-03-21T08:45:02;23.67;;;14.20;;
58468;SDS011;44257;44.804;10.220;2023-03-21T08:47:29;23.48;;;14.55;;
58468;SDS011;44257;44.804;10.220;2023-03-21T08:49:55;23.92;;;13.30;;
58468;SDS011;44257;44.804;10.220;2023-03-21T08:52:21;23.52;;;14.23;;
58468;SDS011;44257;44.804;10.220;2023-03-21T08:54:47;22.80;;;14.35;;
58468;SDS011;44257;44.804;10.220;2023-03-21T08:57:13;25.80;;;14.50;;
58468;SDS011;44257;44.804;10.220;2023-03-21T08:59:39;30.75;;;14.98;;
58468;SDS011;44257;44.804;10.220;2023-03-21T09:02:05;25.50;;;14.32;;
58468;SDS011;44257;44.804;10.220;2023-03-21T09:04:32;24.52;;;14.88;;
58468;SDS011;44257;44.804;10.220;2023-03-21T09:06:57;27.50;;;15.15;;
58468;SDS011;44257;44.804;10.220;2023-03-21T09:09:26;30.75;;;14.90;;
58468;SDS011;44257;44.804;10.220;2023-03-21T09:11:53;30.23;;;15.63;;
58468;SDS011;44257;44.804;10.220;2023-03-21T09:14:19;26.48;;;16.70;;
58468;SDS011;44257;44.804;10.220;2023-03-21T09:16:44;27.55;;;16.23;;
58468;SDS011;44257;44.804;10.220;2023-03-21T09:19:10;26.33;;;15.52;;
58468;SDS011;44257;44.804;10.220;2023-03-21T09:21:36;22.65;;;15.13;;
58468;SDS011;44257;44.804;10.220;2023-03-21T09:24:03;26.40;;;15.48;;
58468;SDS011;44257;44.804;10.220;2023-03-21T09:26:30;24.10;;;16.15;;
58468;SDS011;44257;44.804;10.220;2023-03-21T09:28:56;27.15;;;16.13;;
58468;SDS011;44257;44.804;10.220;2023-03-21T09:31:22;37.63;;;16.83;;
58468;SDS011;44257;44.804;10.220;2023-03-21T09:33:49;25.23;;;15.70;;
58468;SDS011;44257;44.804;10.220;2023-03-21T09:36:15;35.40;;;17.13;;
58468;SDS011;44257;44.804;10.220;2023-03-21T09:38:46;36.45;;;16.75;;
58468;SDS011;44257;44.804;10.220;2023-03-21T09:44:07;31.50;;;17.40;;
58468;SDS011;44257;44.804;10.220;2023-03-21T09:47:13;29.25;;;16.20;;
58468;SDS011;44257;44.804;10.220;2023-03-21T09:52:53;27.38;;;17.25;;
58468;SDS011;44257;44.804;10.220;2023-03-21T09:55:23;32.97;;;19.08;;
58468;SDS011;44257;44.804;10.220;2023-03-21T09:58:03;30.85;;;19.38;;
58468;SDS011;44257;44.804;10.220;2023-03-21T10:00:43;26.92;;;16.58;;
58468;SDS011;44257;44.804;10.220;2023-03-21T10:05:47;29.33;;;19.02;;
58468;SDS011;44257;44.804;10.220;2023-03-21T10:08:27;33.72;;;20.05;;
58468;SDS011;44257;44.804;10.220;2023-03-21T10:13:52;32.05;;;19.60;;
58468;SDS011;44257;44.804;10.220;2023-03-21T10:16:27;32.92;;;18.58;;
58468;SDS011;44257;44.804;10.220;2023-03-21T10:18:54;30.40;;;19.23;;
58468;SDS011;44257;44.804;10.220;2023-03-21T10:21:22;34.10;;;20.35;;
58468;SDS011;44257;44.804;10.220;2023-03-21T10:23:50;32.67;;;19.67;;
58468;SDS011;44257;44.804;10.220;2023-03-21T10:26:18;33.88;;;19.27;;
58468;SDS011;44257;44.804;10.220;2023-03-21T10:28:47;32.33;;;19.42;;
58468;SDS011;44257;44.804;10.220;2023-03-21T10:31:15;30.55;;;19.52;;
58468;SDS011;44257;44.804;10.220;2023-03-21T10:33:43;31.25;;;19.50;;
58468;SDS011;44257;44.804;10.220;2023-03-21T10:36:16;28.58;;;18.15;;
58468;SDS011;44257;44.804;10.220;2023-03-21T10:41:49;22.35;;;13.25;;
58468;SDS011;44257;44.804;10.220;2023-03-21T10:44:17;18.67;;;11.32;;
58468;SDS011;44257;44.804;10.220;2023-03-21T10:49:17;21.58;;;13.30;;
58468;SDS011;44257;44.804;10.220;2023-03-21T10:51:45;27.95;;;16.45;;
58468;SDS011;44257;44.804;10.220;2023-03-21T10:54:15;28.25;;;16.27;;
58468;SDS011;44257;44.804;10.220;2023-03-21T10:56:44;26.00;;;16.95;;
58468;SDS011;44257;44.804;10.220;2023-03-21T10:59:21;27.48;;;15.73;;
58468;SDS011;44257;44.804;10.220;2023-03-21T11:01:49;23.90;;;14.93;;
58468;SDS011;44257;44.804;10.220;2023-03-21T11:04:18;22.05;;;12.48;;
58468;SDS011;44257;44.804;10.220;2023-03-21T11:06:56;24.38;;;13.32;;
58468;SDS011;44257;44.804;10.220;2023-03-21T11:09:26;24.42;;;14.75;;
58468;SDS011;44257;44.804;10.220;2023-03-21T11:12:10;26.85;;;15.38;;
58468;SDS011;44257;44.804;10.220;2023-03-21T11:14:52;25.52;;;15.60;;
58468;SDS011;44257;44.804;10.220;2023-03-21T11:20:00;23.63;;;14.70;;
58468;SDS011;44257;44.804;10.220;2023-03-21T11:22:35;25.95;;;14.85;;
58468;SDS011;44257;44.804;10.220;2023-03-21T11:25:04;21.75;;;14.30;;
58468;SDS011;44257;44.804;10.220;2023-03-21T11:27:33;22.98;;;14.32;;
58468;SDS011;44257;44.804;10.220;2023-03-21T11:30:00;20.90;;;13.18;;
58468;SDS011;44257;44.804;10.220;2023-03-21T11:32:33;23.35;;;13.38;;
58468;SDS011;44257;44.804;10.220;2023-03-21T11:35:05;22.90;;;14.60;;
58468;SDS011;44257;44.804;10.220;2023-03-21T11:37:44;21.15;;;13.60;;
58468;SDS011;44257;44.804;10.220;2023-03-21T11:40:20;18.60;;;11.98;;
58468;SDS011;44257;44.804;10.220;2023-03-21T11:42:52;23.02;;;13.90;;
58468;SDS011;44257;44.804;10.220;2023-03-21T11:45:34;25.08;;;14.23;;
58468;SDS011;44257;44.804;10.220;2023-03-21T11:48:06;21.90;;;13.50;;
58468;SDS011;44257;44.804;10.220;2023-03-21T11:50:40;21.77;;;13.95;;
58468;SDS011;44257;44.804;10.220;2023-03-21T11:53:18;21.95;;;13.60;;
58468;SDS011;44257;44.804;10.220;2023-03-21T11:58:30;22.70;;;14.88;;
58468;SDS011;44257;44.804;10.220;2023-03-21T12:01:06;21.58;;;13.95;;
58468;SDS011;44257;44.804;10.220;2023-03-21T12:04:06;22.30;;;13.65;;
58468;SDS011;44257;44.804;10.220;2023-03-21T12:06:52;20.70;;;13.40;;
58468;SDS011;44257;44.804;10.220;2023-03-21T12:09:29;19.67;;;12.38;;
58468;SDS011;44257;44.804;10.220;2023-03-21T12:39:41;26.85;;;13.68;;
58468;SDS011;44257;44.804;10.220;2023-03-21T12:47:51;28.20;;;13.80;;
58468;SDS011;44257;44.804;10.220;2023-03-21T12:50:39;25.67;;;15.38;;
58468;SDS011;44257;44.804;10.220;2023-03-21T12:56:00;26.27;;;15.25;;
58468;SDS011;44257;44.804;10.220;2023-03-21T12:58:33;24.80;;;14.93;;
58468;SDS011;44257;44.804;10.220;2023-03-21T13:01:22;24.23;;;14.77;;
58468;SDS011;44257;44.804;10.220;2023-03-21T13:03:51;25.85;;;15.27;;
58468;SDS011;44257;44.804;10.220;2023-03-21T13:06:33;23.58;;;14.85;;
58468;SDS011;44257;44.804;10.220;2023-03-21T13:09:04;25.73;;;15.45;;
58468;SDS011;44257;44.804;10.220;2023-03-21T13:11:50;31.45;;;15.75;;
58468;SDS011;44257;44.804;10.220;2023-03-21T13:14:29;23.50;;;14.68;;
58468;SDS011;44257;44.804;10.220;2023-03-21T13:17:02;24.00;;;15.27;;
58468;SDS011;44257;44.804;10.220;2023-03-21T13:27:17;24.48;;;14.07;;
58468;SDS011;44257;44.804;10.220;2023-03-21T13:32:35;21.60;;;14.23;;
58468;SDS011;44257;44.804;10.220;2023-03-21T13:35:22;21.67;;;13.63;;
58468;SDS011;44257;44.804;10.220;2023-03-21T13:38:17;23.23;;;14.63;;
58468;SDS011;44257;44.804;10.220;2023-03-21T13:40:50;23.05;;;15.10;;
58468;SDS011;44257;44.804;10.220;2023-03-21T13:43:32;25.55;;;15.77;;
58468;SDS011;44257;44.804;10.220;2023-03-21T13:46:11;22.73;;;15.05;;
58468;SDS011;44257;44.804;10.220;2023-03-21T13:54:03;21.15;;;14.38;;
58468;SDS011;44257;44.804;10.220;2023-03-21T13:56:34;24.05;;;14.30;;
58468;SDS011;44257;44.804;10.220;2023-03-21T13:59:18;23.42;;;14.07;;
58468;SDS011;44257;44.804;10.220;2023-03-21T14:04:45;21.35;;;14.00;;
58468;SDS011;44257;44.804;10.220;2023-03-21T14:09:45;23.02;;;14.23;;
58468;SDS011;44257;44.804;10.220;2023-03-21T14:12:14;23.40;;;14.68;;
58468;SDS011;44257;44.804;10.220;2023-03-21T14:14:45;24.67;;;15.85;;
58468;SDS011;44257;44.804;10.220;2023-03-21T14:17:22;22.80;;;14.75;;
58468;SDS011;44257;44.804;10.220;2023-03-21T14:19:56;22.77;;;14.40;;
58468;SDS011;44257;44.804;10.220;2023-03-21T14:22:26;22.20;;;14.77;;
58468;SDS011;44257;44.804;10.220;2023-03-21T14:24:54;25.23;;;15.85;;
58468;SDS011;44257;44.804;10.220;2023-03-21T14:27:25;20.52;;;13.80;;
58468;SDS011;44257;44.804;10.220;2023-03-21T14:29:55;19.42;;;13.15;;
58468;SDS011;44257;44.804;10.220;2023-03-21T14:32:24;21.38;;;12.38;;
58468;SDS011;44257;44.804;10.220;2023-03-21T14:34:53;20.65;;;12.30;;
58468;SDS011;44257;44.804;10.220;2023-03-21T14:37:27;19.15;;;11.93;;
58468;SDS011;44257;44.804;10.220;2023-03-21T14:39:59;21.65;;;12.63;;
58468;SDS011;44257;44.804;10.220;2023-03-21T14:42:26;20.92;;;12.15;;
58468;SDS011;44257;44.804;10.220;2023-03-21T14:44:57;26.83;;;12.98;;
58468;SDS011;44257;44.804;10.220;2023-03-21T14:47:27;18.75;;;12.30;;
58468;SDS011;44257;44.804;10.220;2023-03-21T14:49:54;20.17;;;10.88;;
58468;SDS011;44257;44.804;10.220;2023-03-21T14:52:23;18.30;;;12.18;;
58468;SDS011;44257;44.804;10.220;2023-03-21T14:54:51;17.92;;;11.18;;
58468;SDS011;44257;44.804;10.220;2023-03-21T14:57:29;18.63;;;11.70;;
58468;SDS011;44257;44.804;10.220;2023-03-21T14:59:59;16.95;;;10.55;;
58468;SDS011;44257;44.804;10.220;2023-03-21T15:02:32;17.83;;;11.00;;
58468;SDS011;44257;44.804;10.220;2023-03-21T15:07:39;19.13;;;11.15;;
58468;SDS011;44257;44.804;10.220;2023-03-21T15:10:07;17.80;;;10.77;;
58468;SDS011;44257;44.804;10.220;2023-03-21T15:12:48;16.65;;;10.77;;
58468;SDS011;44257;44.804;10.220;2023-03-21T15:15:18;15.45;;;10.35;;
58468;SDS011;44257;44.804;10.220;2023-03-21T15:17:45;17.58;;;10.13;;
58468;SDS011;44257;44.804;10.220;2023-03-21T15:20:15;16.10;;;10.65;;
58468;SDS011;44257;44.804;10.220;2023-03-21T15:22:44;14.90;;;10.23;;
58468;SDS011;44257;44.804;10.220;2023-03-21T15:25:15;15.13;;;10.70;;
58468;SDS011;44257;44.804;10.220;2023-03-21T15:27:44;16.90;;;10.38;;
58468;SDS011;44257;44.804;10.220;2023-03-21T15:30:17;16.58;;;9.45;;
58468;SDS011;44257;44.804;10.220;2023-03-21T15:32:45;14.90;;;9.13;;
58468;SDS011;44257;44.804;10.220;2023-03-21T15:35:15;14.88;;;9.15;;
58468;SDS011;44257;44.804;10.220;2023-03-21T15:38:22;16.00;;;9.68;;
58468;SDS011;44257;44.804;10.220;2023-03-21T15:43:46;13.52;;;9.15;;
58468;SDS011;44257;44.804;10.220;2023-03-21T15:46:17;14.15;;;8.88;;
58468;SDS011;44257;44.804;10.220;2023-03-21T15:51:39;15.23;;;9.70;;
58468;SDS011;44257;44.804;10.220;2023-03-21T15:54:14;15.90;;;9.35;;
58468;SDS011;44257;44.804;10.220;2023-03-21T15:56:44;14.73;;;9.75;;
58468;SDS011;44257;44.804;10.220;2023-03-21T15:59:14;17.20;;;10.20;;
58468;SDS011;44257;44.804;10.220;2023-03-21T16:01:47;16.60;;;9.63;;
58468;SDS011;44257;44.804;10.220;2023-03-21T16:04:14;13.35;;;9.35;;
58468;SDS011;44257;44.804;10.220;2023-03-21T16:09:37;13.73;;;9.52;;
58468;SDS011;44257;44.804;10.220;2023-03-21T16:12:08;19.70;;;10.10;;
58468;SDS011;44257;44.804;10.220;2023-03-21T16:14:37;16.85;;;10.40;;
58468;SDS011;44257;44.804;10.220;2023-03-21T16:20:11;14.23;;;9.48;;
58468;SDS011;44257;44.804;10.220;2023-03-21T16:22:42;16.58;;;11.07;;
58468;SDS011;44257;44.804;10.220;2023-03-21T16:25:08;17.15;;;9.88;;
58468;SDS011;44257;44.804;10.220;2023-03-21T16:27:34;15.38;;;10.27;;
58468;SDS011;44257;44.804;10.220;2023-03-21T16:30:00;13.27;;;9.88;;
58468;SDS011;44257;44.804;10.220;2023-03-21T16:32:26;15.43;;;10.23;;
58468;SDS011;44257;44.804;10.220;2023-03-21T16:34:52;14.57;;;9.32;;
58468;SDS011;44257;44.804;10.220;2023-03-21T16:37:18;17.52;;;10.18;;
58468;SDS011;44257;44.804;10.220;2023-03-21T16:39:45;15.60;;;9.95;;
58468;SDS011;44257;44.804;10.220;2023-03-21T16:42:11;18.40;;;9.98;;
58468;SDS011;44257;44.804;10.220;2023-03-21T16:44:38;17.83;;;9.63;;
58468;SDS011;44257;44.804;10.220;2023-03-21T16:47:17;16.02;;;9.18;;
58468;SDS011;44257;44.804;10.220;2023-03-21T16:49:45;15.48;;;9.88;;
58468;SDS011;44257;44.804;10.220;2023-03-21T16:52:11;14.45;;;9.63;;